Time;durP1;ratioP1;P1;durP2;ratioP2;P2;SDS_P1;SDS_P2;PMS_P1;PMS_P2;Temp;Humidity;BMP_temperature;BMP_pressure;BME280_temperature;BME280_humidity;BME280_pressure;Samples;Min_cycle;Max_cycle;Signal;HPM_P1;HPM_P2
2022/10/19 00:01:52;;;;;;;24.40;13.87;;;;;;;7.31;86.13;95298.50;5054420;28;20201;-79
2022/10/19 00:04:19;;;;;;;28.03;14.67;;;;;;;7.35;85.67;95298.94;5054578;28;20236;-78
2022/10/19 00:06:46;;;;;;;26.33;12.53;;;;;;;7.38;85.26;95296.00;5054107;28;20222;-78
2022/10/19 00:09:15;;;;;;;23.03;11.70;;;;;;;7.40;84.83;95297.41;5054446;28;20251;-78
2022/10/19 00:11:44;;;;;;;19.80;11.20;;;;;;;7.41;85.24;95299.00;5053679;28;20202;-77
2022/10/19 00:14:14;;;;;;;22.13;13.20;;;;;;;7.39;84.97;95303.53;5033646;28;20199;-78
2022/10/19 00:16:44;;;;;;;24.47;11.93;;;;;;;7.36;85.39;95297.94;5034903;28;20201;-77
2022/10/19 00:19:14;;;;;;;29.90;12.83;;;;;;;7.31;85.38;95293.31;5033717;28;20248;-77
2022/10/19 00:21:41;;;;;;;24.43;12.97;;;;;;;7.29;85.43;95292.72;5034311;28;20198;-78
2022/10/19 00:24:08;;;;;;;25.87;12.40;;;;;;;7.13;86.07;95274.81;5033669;28;20249;-78
2022/10/19 00:26:35;;;;;;;21.60;12.13;;;;;;;7.15;85.74;95272.06;5034352;28;20234;-78
2022/10/19 00:29:03;;;;;;;21.87;12.33;;;;;;;7.15;85.79;95272.06;5033691;28;20665;-77
2022/10/19 00:31:30;;;;;;;22.60;12.77;;;;;;;7.13;86.21;95264.47;5033942;28;20190;-79
2022/10/19 00:33:58;;;;;;;25.80;12.73;;;;;;;7.15;86.18;95256.56;5033347;28;20206;-76
2022/10/19 00:36:27;;;;;;;24.43;12.40;;;;;;;7.04;86.41;95252.63;5033609;28;20199;-76
2022/10/19 00:38:55;;;;;;;22.53;12.47;;;;;;;6.98;86.63;95253.38;5033489;28;20290;-77
2022/10/19 00:41:24;;;;;;;18.70;11.30;;;;;;;6.94;86.76;95239.22;5033495;28;20632;-78
2022/10/19 00:43:54;;;;;;;27.60;11.87;;;;;;;6.98;87.54;95243.06;5050356;28;20256;-78
2022/10/19 00:46:21;;;;;;;25.57;12.17;;;;;;;6.90;87.10;95232.78;5054495;28;20198;-77
2022/10/19 00:48:49;;;;;;;24.60;12.57;;;;;;;6.97;87.07;95236.28;5053446;28;20217;-78
2022/10/19 00:51:17;;;;;;;19.33;11.33;;;;;;;7.00;86.67;95238.50;5053666;28;20190;-77
2022/10/19 00:53:44;;;;;;;21.50;11.70;;;;;;;6.98;86.57;95237.88;5053196;28;20645;-79
2022/10/19 00:56:15;;;;;;;18.80;11.30;;;;;;;6.82;87.08;95228.53;5054182;28;20194;-78
2022/10/19 00:58:43;;;;;;;24.83;12.20;;;;;;;6.91;86.91;95234.41;5054588;28;20553;-78
2022/10/19 01:01:14;;;;;;;24.23;12.73;;;;;;;6.90;87.14;95229.44;5055346;28;20197;-78
2022/10/19 01:03:41;;;;;;;25.13;12.13;;;;;;;6.81;87.04;95220.97;5054013;28;20186;-78
2022/10/19 01:06:08;;;;;;;24.37;13.77;;;;;;;6.72;87.87;95217.66;5053522;28;20577;-79
2022/10/19 01:08:37;;;;;;;17.00;10.10;;;;;;;6.70;87.41;95218.84;5052377;28;20222;-77
2022/10/19 01:11:22;;;;;;;19.20;10.40;;;;;;;6.66;87.47;95205.50;5053148;28;20206;-77
2022/10/19 01:13:59;;;;;;;23.77;11.37;;;;;;;6.66;87.68;95208.09;5053211;28;20206;-77
2022/10/19 01:16:37;;;;;;;20.20;10.57;;;;;;;6.61;87.84;95205.22;5052861;28;20715;-78
2022/10/19 01:19:24;;;;;;;20.70;11.80;;;;;;;6.56;88.28;95201.56;5052964;28;20181;-79
2022/10/19 01:22:04;;;;;;;21.53;11.37;;;;;;;6.61;87.84;95196.69;5052859;28;20196;-78
2022/10/19 01:24:56;;;;;;;20.13;12.10;;;;;;;6.45;87.19;95161.53;5053044;28;20201;-78
2022/10/19 01:27:39;;;;;;;18.30;10.87;;;;;;;6.61;87.09;95199.28;5053103;28;20221;-78
2022/10/19 01:30:11;;;;;;;23.83;11.93;;;;;;;6.58;87.22;95191.88;5052516;28;20658;-79
2022/10/19 01:32:56;;;;;;;21.37;12.30;;;;;;;6.56;86.67;95186.91;5052804;28;20186;-78
2022/10/19 01:35:30;;;;;;;25.73;11.83;;;;;;;6.50;87.91;95185.03;5051079;28;20281;-78
2022/10/19 01:38:07;;;;;;;22.83;11.47;;;;;;;6.56;87.73;95188.66;5052671;28;20194;-78
2022/10/19 01:40:41;;;;;;;21.43;11.87;;;;;;;6.46;87.66;95183.00;5053023;28;20555;-78
2022/10/19 01:43:17;;;;;;;20.07;11.70;;;;;;;6.44;87.98;95180.56;5040645;28;20242;-79
2022/10/19 01:45:48;;;;;;;18.17;11.73;;;;;;;6.42;87.59;95177.38;5032807;28;20187;-78
2022/10/19 01:48:18;;;;;;;23.27;11.73;;;;;;;6.40;87.57;95183.72;5031838;28;20214;-78
2022/10/19 01:50:51;;;;;;;20.73;11.27;;;;;;;6.40;87.75;95171.59;5032753;28;20194;-78
2022/10/19 01:53:19;;;;;;;22.40;11.87;;;;;;;6.26;88.39;95162.88;5032121;28;20199;-78
2022/10/19 01:55:51;;;;;;;29.20;11.93;;;;;;;6.32;88.10;95170.91;5032508;28;20203;-78
2022/10/19 01:58:24;;;;;;;22.37;12.63;;;;;;;6.27;87.50;95161.09;5031976;28;20241;-78
2022/10/19 02:00:56;;;;;;;23.70;11.70;;;;;;;6.36;87.68;95167.78;5032574;28;20179;-78
2022/10/19 02:03:24;;;;;;;27.53;13.40;;;;;;;6.32;87.62;95168.31;5032053;28;20559;-78
2022/10/19 02:05:52;;;;;;;19.37;9.90;;;;;;;6.27;86.97;95167.06;5031869;28;20194;-78
2022/10/19 02:08:25;;;;;;;20.27;9.53;;;;;;;6.23;87.06;95170.19;5031771;28;20284;-78
2022/10/19 02:10:52;;;;;;;20.10;9.13;;;;;;;6.23;86.77;95163.22;5031838;28;20205;-78
2022/10/19 02:13:21;;;;;;;18.13;8.90;;;;;;;6.15;86.75;95160.75;5044624;28;20205;-78
2022/10/19 02:15:51;;;;;;;21.73;11.93;;;;;;;6.13;87.34;95162.72;5051900;28;20201;-78
2022/10/19 02:18:25;;;;;;;25.37;11.43;;;;;;;6.18;87.16;95168.13;5051837;28;20190;-78
2022/10/19 02:20:52;;;;;;;12.87;8.70;;;;;;;6.17;87.00;95163.16;5051651;28;20640;-78
2022/10/19 02:23:22;;;;;;;24.00;11.17;;;;;;;6.03;87.12;95145.91;5052008;28;20672;-78
2022/10/19 02:25:49;;;;;;;20.77;11.50;;;;;;;6.10;87.13;95152.75;5052427;28;20683;-78
2022/10/19 02:28:16;;;;;;;22.27;12.40;;;;;;;6.17;87.67;95170.91;5051708;28;20229;-78
2022/10/19 02:30:42;;;;;;;21.40;11.40;;;;;;;6.14;87.44;95159.16;5051481;28;20202;-78
2022/10/19 02:33:11;;;;;;;23.27;10.73;;;;;;;6.09;87.23;95158.88;5051130;28;20530;-78
2022/10/19 02:35:40;;;;;;;22.33;10.60;;;;;;;6.07;87.24;95158.25;5051445;28;20197;-78
2022/10/19 02:38:10;;;;;;;18.57;10.10;;;;;;;6.11;87.63;95162.09;5051785;28;20557;-79
2022/10/19 02:40:41;;;;;;;17.60;10.10;;;;;;;6.02;87.74;95158.00;5051841;28;20649;-78
2022/10/19 02:43:14;;;;;;;17.13;9.67;;;;;;;6.06;88.10;95166.19;5051295;28;20233;-78
2022/10/19 02:45:46;;;;;;;18.57;10.37;;;;;;;6.02;88.06;95160.56;5051961;28;20182;-78
2022/10/19 02:48:17;;;;;;;23.43;10.87;;;;;;;6.08;87.60;95165.03;5051119;28;20221;-78
2022/10/19 02:50:46;;;;;;;19.17;11.20;;;;;;;6.11;87.59;95161.28;5051571;28;20206;-78
2022/10/19 02:53:13;;;;;;;18.87;9.53;;;;;;;6.07;87.58;95162.59;5051514;28;20604;-78
2022/10/19 02:55:40;;;;;;;12.90;8.10;;;;;;;5.97;87.03;95159.50;5051114;28;20207;-77
2022/10/19 02:58:07;;;;;;;28.27;12.63;;;;;;;6.00;87.58;95156.56;5051426;28;20563;-77
2022/10/19 03:00:34;;;;;;;32.50;17.13;;;;;;;5.98;88.30;95161.09;5055448;28;20212;-77
2022/10/19 03:03:01;;;;;;;35.90;21.53;;;;;;;5.93;88.37;95159.06;5054710;28;20227;-77
2022/10/19 03:05:28;;;;;;;35.63;24.07;;;;;;;5.91;88.90;95155.84;5055504;28;20198;-77
2022/10/19 03:07:56;;;;;;;30.13;18.70;;;;;;;5.95;87.84;95153.69;5055884;28;20578;-78
2022/10/19 03:10:23;;;;;;;24.80;15.83;;;;;;;5.77;88.23;95135.97;5055564;28;20205;-78
2022/10/19 03:12:50;;;;;;;29.13;19.60;;;;;;;5.85;88.52;95151.41;5055519;28;20664;-78
2022/10/19 03:15:18;;;;;;;29.80;17.80;;;;;;;5.78;89.19;95159.97;5055239;28;20201;-78
2022/10/19 03:17:45;;;;;;;29.80;17.63;;;;;;;5.77;89.80;95158.38;5054815;28;20252;-78
2022/10/19 03:20:12;;;;;;;28.60;16.53;;;;;;;5.90;89.08;95156.81;5055060;28;20201;-77
2022/10/19 03:22:38;;;;;;;29.03;17.70;;;;;;;5.89;89.30;95155.22;5055281;28;20198;-78
2022/10/19 03:25:08;;;;;;;25.67;16.80;;;;;;;5.86;89.41;95154.78;5054991;28;20213;-77
2022/10/19 03:27:34;;;;;;;28.77;17.83;;;;;;;5.84;89.90;95159.28;5054728;28;20221;-78
2022/10/19 03:30:01;;;;;;;28.27;15.93;;;;;;;5.81;90.18;95151.88;5054850;28;20266;-78
2022/10/19 03:32:28;;;;;;;28.00;16.33;;;;;;;5.85;89.54;95153.16;5055068;28;20198;-77
2022/10/19 03:34:55;;;;;;;25.00;14.43;;;;;;;5.89;88.08;95150.06;5054953;28;20197;-78
2022/10/19 03:37:21;;;;;;;29.80;14.03;;;;;;;5.87;87.67;95144.28;5054398;28;20194;-79
2022/10/19 03:39:48;;;;;;;30.10;17.67;;;;;;;5.92;87.40;95143.75;5054241;28;20202;-78
2022/10/19 03:42:16;;;;;;;26.93;16.40;;;;;;;5.82;87.67;95143.19;5050207;28;20242;-78
2022/10/19 03:44:43;;;;;;;29.73;15.53;;;;;;;5.72;88.15;95144.22;5034402;28;20195;-78
2022/10/19 03:47:10;;;;;;;31.07;15.60;;;;;;;5.66;89.11;95150.09;5034289;28;20214;-78
2022/10/19 03:49:37;;;;;;;33.60;16.00;;;;;;;5.60;89.61;95139.66;5034232;28;20592;-78
2022/10/19 03:52:04;;;;;;;27.40;14.53;;;;;;;5.59;89.55;95133.72;5034226;28;20250;-78
2022/10/19 03:54:31;;;;;;;31.13;18.40;;;;;;;5.58;89.02;95134.69;5034190;28;20699;-78
2022/10/19 03:56:57;;;;;;;37.03;19.57;;;;;;;5.53;89.57;95131.84;5034103;28;20198;-77
2022/10/19 03:59:26;;;;;;;37.83;19.47;;;;;;;5.58;89.02;95139.84;5033952;28;20242;-77
2022/10/19 04:01:52;;;;;;;39.13;17.70;;;;;;;5.57;89.63;95142.63;5033500;28;20261;-79
2022/10/19 04:04:20;;;;;;;38.60;17.07;;;;;;;5.55;88.97;95135.06;5033732;28;20684;-78
2022/10/19 04:06:48;;;;;;;26.97;15.90;;;;;;;5.52;89.51;95134.59;5034154;28;20187;-78
2022/10/19 04:09:18;;;;;;;29.93;16.83;;;;;;;5.52;88.60;95134.59;5034399;28;20249;-78
2022/10/19 04:11:45;;;;;;;38.23;19.97;;;;;;;5.48;89.17;95135.94;5033313;28;20203;-77
2022/10/19 04:14:13;;;;;;;43.17;21.53;;;;;;;5.50;88.95;95132.19;5034145;28;20210;-80
2022/10/19 04:16:41;;;;;;;41.00;22.57;;;;;;;5.42;89.99;95131.47;5033900;28;20202;-77
2022/10/19 04:19:09;;;;;;;69.33;34.93;;;;;;;5.40;89.59;95128.25;5033631;28;20665;-77
2022/10/19 04:21:39;;;;;;;85.30;40.57;;;;;;;5.40;89.51;95125.66;5033475;28;20677;-78
2022/10/19 04:24:07;;;;;;;84.83;40.20;;;;;;;5.31;90.13;95113.84;5034113;28;20263;-78
2022/10/19 04:26:38;;;;;;;93.47;41.73;;;;;;;5.37;90.22;95123.47;5033230;28;20198;-78
2022/10/19 04:29:05;;;;;;;97.50;40.27;;;;;;;5.37;89.71;95119.09;5033565;28;20229;-78
2022/10/19 04:31:31;;;;;;;84.47;39.63;;;;;;;5.32;90.31;95118.81;5032976;28;20208;-79
2022/10/19 04:34:00;;;;;;;78.23;37.57;;;;;;;5.40;89.72;95117.94;5033265;28;20273;-78
2022/10/19 04:36:27;;;;;;;75.20;38.33;;;;;;;5.38;90.33;95118.13;5033736;28;20198;-77
2022/10/19 04:38:53;;;;;;;83.63;35.07;;;;;;;5.41;89.25;95114.41;5033700;28;20194;-78
2022/10/19 04:41:22;;;;;;;70.37;36.33;;;;;;;5.34;90.03;95113.50;5034023;28;20195;-78
2022/10/19 04:43:49;;;;;;;80.77;38.60;;;;;;;5.30;90.74;95107.91;5050261;28;20230;-78
2022/10/19 04:46:17;;;;;;;86.87;42.90;;;;;;;5.25;90.72;95115.34;5053338;28;20208;-78
2022/10/19 04:48:46;;;;;;;92.23;42.93;;;;;;;5.15;91.43;95118.16;5053842;28;20220;-77
2022/10/19 04:51:15;;;;;;;104.30;45.53;;;;;;;5.24;90.52;95112.94;5053362;28;20201;-77
2022/10/19 04:53:43;;;;;;;96.73;43.80;;;;;;;5.22;90.53;95118.28;5053747;28;20197;-77
2022/10/19 04:56:12;;;;;;;108.27;45.93;;;;;;;5.24;90.61;95118.91;5053861;28;20198;-77
2022/10/19 04:58:39;;;;;;;95.77;46.53;;;;;;;5.19;91.34;95122.97;5053138;28;20197;-78
2022/10/19 05:01:10;;;;;;;98.50;49.70;;;;;;;5.17;91.27;95125.69;5052857;28;20570;-78
2022/10/19 05:03:36;;;;;;;108.90;54.47;;;;;;;5.10;90.69;95123.03;5053336;28;20201;-78
2022/10/19 05:06:04;;;;;;;122.03;61.77;;;;;;;5.21;90.53;95118.44;5052763;28;20295;-79
2022/10/19 05:08:32;;;;;;;126.33;67.50;;;;;;;5.15;90.64;95118.16;5052749;28;20585;-78
2022/10/19 05:11:03;;;;;;;154.40;76.43;;;;;;;5.27;90.25;95115.16;5052555;28;20220;-78
2022/10/19 05:13:31;;;;;;;121.60;62.63;;;;;;;5.32;90.43;95120.59;5038002;28;20252;-77
2022/10/19 05:16:00;;;;;;;124.13;60.87;;;;;;;5.28;90.58;95111.63;5033077;28;20540;-78
2022/10/19 05:18:27;;;;;;;108.10;54.93;;;;;;;5.29;90.56;95110.63;5033048;28;20225;-77
2022/10/19 05:21:01;;;;;;;103.17;51.93;;;;;;;5.25;91.55;95114.56;5033553;28;20202;-78
2022/10/19 05:23:28;;;;;;;98.40;47.40;;;;;;;5.29;91.24;95114.00;5031909;28;20197;-78
2022/10/19 05:26:01;;;;;;;101.47;44.80;;;;;;;5.16;91.47;95100.94;5032981;28;20205;-78
2022/10/19 05:28:28;;;;;;;86.50;41.73;;;;;;;5.26;91.64;95116.94;5032650;28;20199;-78
2022/10/19 05:30:55;;;;;;;89.93;41.03;;;;;;;5.25;91.40;95112.78;5032803;28;20668;-79
2022/10/19 05:33:22;;;;;;;84.83;40.53;;;;;;;5.25;91.49;95125.66;5033065;28;20598;-78
2022/10/19 05:35:49;;;;;;;84.47;40.43;;;;;;;5.31;91.15;95124.16;5033599;28;20268;-80
2022/10/19 05:38:16;;;;;;;95.87;44.13;;;;;;;5.26;90.75;95100.66;5032946;28;20198;-78
2022/10/19 05:40:45;;;;;;;88.07;44.40;;;;;;;5.35;91.21;95112.50;5033098;28;20200;-78
2022/10/19 05:43:13;;;;;;;89.83;44.10;;;;;;;5.40;92.01;95113.59;5044233;28;20236;-79
2022/10/19 05:45:40;;;;;;;92.40;46.30;;;;;;;5.47;92.31;95121.44;5052730;28;20555;-78
2022/10/19 05:48:07;;;;;;;96.17;44.00;;;;;;;5.49;91.95;95122.06;5052845;28;20220;-78
2022/10/19 05:50:34;;;;;;;70.40;37.83;;;;;;;5.52;91.48;95119.13;5052419;28;20201;-79
2022/10/19 05:53:00;;;;;;;70.10;32.40;;;;;;;5.55;92.24;95124.75;5052075;28;20199;-78
2022/10/19 05:55:27;;;;;;;62.67;28.80;;;;;;;5.58;91.93;95119.22;5052556;28;20691;-79
2022/10/19 05:57:54;;;;;;;44.23;22.93;;;;;;;5.70;91.66;95125.56;5052622;28;20200;-78
2022/10/19 06:00:22;;;;;;;46.43;22.60;;;;;;;5.75;91.11;95132.75;5053262;28;20193;-78
2022/10/19 06:02:49;;;;;;;48.60;23.10;;;;;;;5.82;91.06;95130.28;5051960;28;20221;-79
2022/10/19 06:05:16;;;;;;;37.40;21.00;;;;;;;5.85;91.35;95137.66;5051647;28;20213;-78
2022/10/19 06:07:42;;;;;;;39.03;18.37;;;;;;;5.87;91.15;95133.97;5051672;28;20200;-79
2022/10/19 06:10:10;;;;;;;42.30;18.63;;;;;;;5.83;91.35;95111.28;5051340;28;20639;-78
2022/10/19 06:12:37;;;;;;;33.10;17.10;;;;;;;6.03;90.16;95140.75;5044039;28;20241;-77
2022/10/19 06:15:04;;;;;;;40.43;17.67;;;;;;;6.00;90.43;95139.28;5031758;28;20202;-78
2022/10/19 06:17:32;;;;;;;33.40;16.07;;;;;;;6.02;90.10;95144.28;5031725;28;20202;-78
2022/10/19 06:19:59;;;;;;;33.33;15.97;;;;;;;6.09;91.34;95145.97;5031711;28;20709;-78
2022/10/19 06:22:26;;;;;;;35.27;16.43;;;;;;;6.12;90.82;95155.94;5031521;28;20294;-77
2022/10/19 06:24:53;;;;;;;30.37;14.53;;;;;;;6.17;90.48;95147.69;5031573;28;20202;-77
2022/10/19 06:27:19;;;;;;;34.93;15.70;;;;;;;6.20;91.04;95150.69;5030667;28;20202;-78
2022/10/19 06:29:46;;;;;;;30.53;15.27;;;;;;;6.33;90.03;95150.06;5030706;28;20759;-78
2022/10/19 06:32:13;;;;;;;31.63;14.70;;;;;;;6.41;88.88;95147.38;5031242;28;20576;-77
2022/10/19 06:34:41;;;;;;;26.63;14.97;;;;;;;6.45;88.76;95148.63;5030948;28;20697;-77
2022/10/19 06:37:08;;;;;;;28.70;15.20;;;;;;;6.51;87.81;95136.78;5031004;28;20199;-78
2022/10/19 06:39:35;;;;;;;31.00;15.17;;;;;;;6.57;87.71;95148.97;5030558;28;20195;-78
2022/10/19 06:42:01;;;;;;;35.43;16.50;;;;;;;6.60;86.88;95149.41;5032779;28;20637;-78
2022/10/19 06:44:28;;;;;;;30.37;15.33;;;;;;;6.60;87.09;95153.78;5032918;28;20191;-78
2022/10/19 06:46:55;;;;;;;31.30;16.43;;;;;;;6.62;86.72;95146.63;5050555;28;20679;-77
2022/10/19 06:49:22;;;;;;;37.27;17.27;;;;;;;6.69;86.87;95140.59;5051123;28;20218;-79
2022/10/19 06:51:50;;;;;;;38.47;18.33;;;;;;;6.78;86.45;95125.78;5051402;28;20202;-78
2022/10/19 06:54:17;;;;;;;38.07;16.97;;;;;;;6.84;86.22;95136.16;5050766;28;20660;-78
2022/10/19 06:56:44;;;;;;;40.67;17.70;;;;;;;6.77;86.02;95109.47;5050663;28;20194;-79
2022/10/19 06:59:12;;;;;;;32.93;16.70;;;;;;;6.96;86.22;95123.56;5050980;28;20194;-78
2022/10/19 07:01:39;;;;;;;36.40;16.80;;;;;;;7.04;86.23;95112.31;5050700;28;20198;-78
2022/10/19 07:04:06;;;;;;;34.20;17.67;;;;;;;7.18;85.95;95116.63;5051010;28;20197;-78
2022/10/19 07:06:32;;;;;;;32.83;17.73;;;;;;;7.25;85.34;95107.13;5050633;28;20281;-77
2022/10/19 07:09:01;;;;;;;35.23;19.00;;;;;;;7.48;83.60;95119.84;5050567;28;20225;-77
2022/10/19 07:11:28;;;;;;;33.93;17.20;;;;;;;7.51;83.55;95116.88;5050599;28;20679;-79
2022/10/19 07:13:55;;;;;;;30.70;17.97;;;;;;;7.59;82.98;95111.59;5051027;28;20206;-77
2022/10/19 07:16:22;;;;;;;34.27;17.43;;;;;;;7.67;82.68;95114.03;5050849;28;20194;-77
2022/10/19 07:18:50;;;;;;;35.00;17.17;;;;;;;7.68;82.70;95119.00;5050802;28;20190;-78
2022/10/19 07:21:18;;;;;;;34.20;17.80;;;;;;;7.72;81.84;95112.47;5050514;28;20255;-78
2022/10/19 07:23:47;;;;;;;34.43;17.73;;;;;;;7.90;81.36;95112.00;5050614;28;20260;-78
2022/10/19 07:26:17;;;;;;;34.40;17.03;;;;;;;7.95;81.19;95122.56;5050556;28;20240;-79
2022/10/19 07:28:46;;;;;;;39.97;17.77;;;;;;;7.96;81.02;95101.66;5050668;28;20201;-78
2022/10/19 07:31:16;;;;;;;31.23;17.13;;;;;;;8.13;80.59;95107.34;5050592;28;20263;-78
2022/10/19 07:33:43;;;;;;;36.17;17.20;;;;;;;8.09;80.22;95098.34;5050738;28;20556;-78
2022/10/19 07:36:12;;;;;;;47.70;17.73;;;;;;;8.24;79.70;95104.22;5050600;28;20613;-77
2022/10/19 07:38:39;;;;;;;30.13;17.93;;;;;;;8.33;79.26;95110.88;5049888;28;20672;-78
2022/10/19 07:41:07;;;;;;;30.53;16.37;;;;;;;8.40;79.03;95106.50;5050126;28;20198;-78
2022/10/19 07:43:36;;;;;;;37.30;16.57;;;;;;;8.48;78.33;95092.59;5050243;28;20241;-78
2022/10/19 07:46:05;;;;;;;33.33;17.23;;;;;;;8.57;78.14;95088.84;5052390;28;20209;-77
2022/10/19 07:48:32;;;;;;;29.03;16.30;;;;;;;8.68;78.52;95087.47;5054658;28;20206;-77
2022/10/19 07:51:01;;;;;;;32.17;15.47;;;;;;;8.76;77.88;95080.31;5054299;28;20205;-78
2022/10/19 07:53:27;;;;;;;33.90;16.00;;;;;;;8.92;77.20;95087.72;5053973;28;20206;-77
2022/10/19 07:55:54;;;;;;;27.43;16.37;;;;;;;9.03;75.59;95084.53;5053599;28;20580;-78
2022/10/19 07:58:21;;;;;;;26.33;15.93;;;;;;;9.05;75.61;95069.63;5054092;28;20197;-79
2022/10/19 08:00:49;;;;;;;35.13;15.70;;;;;;;9.20;75.43;95079.00;5054225;28;20249;-79
2022/10/19 08:03:16;;;;;;;37.73;16.87;;;;;;;9.30;74.60;95072.41;5054162;28;20300;-79
2022/10/19 08:05:43;;;;;;;29.77;16.27;;;;;;;9.38;74.85;95074.03;5054157;28;20194;-80
2022/10/19 08:08:10;;;;;;;29.97;16.97;;;;;;;9.55;73.94;95072.63;5054080;28;20545;-80
2022/10/19 08:10:36;;;;;;;36.87;17.37;;;;;;;9.63;73.63;95067.22;5054623;28;20245;-79
2022/10/19 08:13:03;;;;;;;27.57;16.20;;;;;;;9.80;73.71;95070.97;5054638;28;20202;-79
2022/10/19 08:15:31;;;;;;;37.83;16.37;;;;;;;9.91;72.00;95074.75;5054840;28;20222;-79
2022/10/19 08:18:00;;;;;;;29.40;15.10;;;;;;;9.98;72.95;95065.16;5053918;28;20251;-79
2022/10/19 08:20:26;;;;;;;37.17;15.73;;;;;;;10.17;71.75;95066.91;5053840;28;20328;-78
2022/10/19 08:22:53;;;;;;;33.77;16.03;;;;;;;10.38;70.48;95068.44;5053412;28;20911;-78
2022/10/19 08:25:20;;;;;;;31.77;15.93;;;;;;;10.62;69.53;95059.94;5053962;28;20570;-80
2022/10/19 08:27:47;;;;;;;31.37;15.73;;;;;;;10.89;68.88;95065.78;5054126;28;20194;-80
2022/10/19 08:30:14;;;;;;;28.67;16.27;;;;;;;11.20;67.66;95060.56;5054083;28;20225;-79
2022/10/19 08:32:40;;;;;;;30.13;15.00;;;;;;;11.61;65.65;95060.03;5053828;28;20207;-80
2022/10/19 08:35:09;;;;;;;29.90;15.23;;;;;;;11.99;63.46;95049.50;5053827;28;20194;-78
2022/10/19 08:37:36;;;;;;;32.90;14.47;;;;;;;12.46;61.42;95053.97;5053397;28;20205;-78
2022/10/19 08:40:03;;;;;;;19.53;10.00;;;;;;;12.90;58.06;95058.03;5053498;28;20197;-78
2022/10/19 08:42:46;;;;;;;20.33;9.93;;;;;;;13.27;55.79;95063.94;5052898;28;20241;-77
2022/10/19 08:45:27;;;;;;;23.60;10.23;;;;;;;13.71;54.87;95060.78;5053641;28;20280;-79
2022/10/19 08:48:17;;;;;;;15.27;8.87;;;;;;;14.13;52.83;95059.66;5053679;28;20179;-79
2022/10/19 08:50:48;;;;;;;18.83;9.20;;;;;;;14.59;52.07;95056.16;5053364;28;20225;-79
2022/10/19 08:53:18;;;;;;;17.33;7.67;;;;;;;15.00;50.89;95055.09;5052779;28;20665;-79
2022/10/19 08:56:00;;;;;;;12.60;6.20;;;;;;;15.32;49.97;95058.00;5052921;28;20553;-78
2022/10/19 08:58:39;;;;;;;15.07;6.23;;;;;;;15.77;48.30;95053.50;5054078;28;20186;-78
2022/10/19 09:01:11;;;;;;;13.43;5.80;;;;;;;16.26;47.09;95053.63;5052979;28;20182;-78
2022/10/19 09:03:45;;;;;;;14.43;6.33;;;;;;;16.79;45.80;95056.44;5052815;28;20202;-77
2022/10/19 09:06:21;;;;;;;11.77;6.00;;;;;;;16.75;44.71;95044.81;5052672;28;20182;-78
2022/10/19 09:08:50;;;;;;;10.57;5.73;;;;;;;16.75;44.36;95036.13;5053022;28;20251;-79
2022/10/19 09:11:24;;;;;;;9.67;6.47;;;;;;;17.21;45.02;95051.31;5053130;28;20222;-79
2022/10/19 09:13:58;;;;;;;17.27;6.03;;;;;;;17.53;43.51;95049.50;5052773;28;20201;-79
2022/10/19 09:16:26;;;;;;;16.37;6.13;;;;;;;17.75;42.66;95054.66;5052951;28;20170;-77
2022/10/19 09:18:53;;;;;;;12.47;5.30;;;;;;;18.20;41.55;95041.03;5052821;28;20254;-79
2022/10/19 09:21:25;;;;;;;10.77;5.77;;;;;;;18.52;40.87;95039.09;5052054;28;20201;-79
2022/10/19 09:23:58;;;;;;;11.90;5.13;;;;;;;18.56;40.06;95040.16;5052907;28;20316;-80
2022/10/19 09:26:29;;;;;;;15.10;5.50;;;;;;;18.66;39.85;95034.16;5053918;28;20638;-80
2022/10/19 09:29:01;;;;;;;13.18;4.75;;;;;;;19.05;39.33;95039.75;5053019;28;20241;-79
2022/10/19 09:31:32;;;;;;;11.70;4.72;;;;;;;19.50;38.30;95050.41;5053151;28;20202;-79
2022/10/19 09:34:01;;;;;;;6.60;4.40;;;;;;;19.33;37.64;95049.06;5052403;28;20213;-78
2022/10/19 09:36:37;;;;;;;11.98;4.85;;;;;;;18.90;38.19;95051.09;5052699;28;20205;-79
2022/10/19 09:39:04;;;;;;;12.32;4.68;;;;;;;18.97;38.48;95050.81;5052760;28;20301;-79
2022/10/19 09:41:32;;;;;;;8.07;4.57;;;;;;;18.99;38.25;95043.47;5052587;28;20587;-79
2022/10/19 09:44:00;;;;;;;14.23;5.13;;;;;;;19.53;38.55;95041.19;5033792;28;20293;-79
2022/10/19 09:46:39;;;;;;;5.82;4.13;;;;;;;19.83;37.32;95036.66;5032484;28;20696;-78
2022/10/19 09:49:06;;;;;;;11.77;4.60;;;;;;;20.28;36.03;95043.75;5032294;28;20278;-78
2022/10/19 09:51:49;;;;;;;10.50;4.55;;;;;;;20.33;35.48;95051.66;5032488;28;20273;-78
2022/10/19 09:54:31;;;;;;;11.23;5.05;;;;;;;20.77;35.24;95049.13;5032346;28;20241;-79
2022/10/19 09:56:58;;;;;;;6.55;4.35;;;;;;;21.20;35.14;95042.31;5032251;28;20233;-80
2022/10/19 09:59:30;;;;;;;11.07;4.50;;;;;;;21.36;34.03;95041.13;5032168;28;20203;-79
2022/10/19 10:02:15;;;;;;;6.78;4.18;;;;;;;21.85;32.50;95043.63;5032384;28;20198;-79
2022/10/19 10:04:42;;;;;;;9.68;4.32;;;;;;;22.30;31.80;95042.47;5032013;28;20198;-79
2022/10/19 10:07:18;;;;;;;15.07;5.90;;;;;;;22.63;31.92;95038.88;5032181;28;20285;-79
2022/10/19 10:09:46;;;;;;;8.95;4.63;;;;;;;22.45;31.98;95041.50;5031358;28;20227;-79
2022/10/19 10:12:15;;;;;;;12.10;4.57;;;;;;;22.50;31.94;95033.50;5035693;28;20263;-79
2022/10/19 10:14:44;;;;;;;7.80;4.43;;;;;;;23.16;31.03;95025.50;5052112;28;20251;-79
2022/10/19 10:17:16;;;;;;;11.20;5.57;;;;;;;22.91;30.44;95023.19;5047275;28;20606;-78
2022/10/19 10:20:04;;;;;;;7.55;4.88;;;;;;;23.23;30.14;95014.53;5039592;28;20232;-78
2022/10/19 10:22:34;;;;;;;14.32;4.70;;;;;;;23.63;29.51;95008.63;5034609;28;20229;-78
2022/10/19 10:25:02;;;;;;;6.38;4.30;;;;;;;23.89;29.70;95009.00;5039487;28;20668;-78
2022/10/19 10:27:33;;;;;;;8.32;4.90;;;;;;;24.34;29.15;95010.84;5047381;28;20767;-78
2022/10/19 10:30:04;;;;;;;11.98;4.53;;;;;;;24.08;28.08;95005.19;5042462;28;20301;-79
2022/10/19 10:32:31;;;;;;;14.93;9.80;;;;;;;24.48;28.64;94998.31;5047745;28;20200;-78
2022/10/19 10:35:01;;;;;;;21.85;11.45;;;;;;;24.66;28.34;94994.78;5034400;28;20210;-79
2022/10/19 10:37:37;;;;;;;6.75;4.60;;;;;;;24.87;28.07;94995.16;5045540;28;20193;-79
2022/10/19 10:40:06;;;;;;;53.83;29.85;;;;;;;24.90;27.99;94991.91;5040001;28;20199;-77
2022/10/19 10:42:36;;;;;;;16.60;9.35;;;;;;;25.35;27.67;95000.72;5041620;28;20249;-78
2022/10/19 10:45:04;;;;;;;10.55;4.97;;;;;;;25.87;26.98;94989.38;5045913;28;20209;-79
2022/10/19 10:47:31;;;;;;;8.63;5.22;;;;;;;26.05;26.35;94979.59;5042379;28;20191;-79
2022/10/19 10:50:01;;;;;;;13.95;4.72;;;;;;;25.85;26.21;94986.22;5037736;28;20226;-78
2022/10/19 10:52:30;;;;;;;8.80;4.07;;;;;;;25.54;26.67;94974.75;5043965;28;20198;-79
2022/10/19 10:55:02;;;;;;;8.15;4.20;;;;;;;26.00;26.46;94982.38;5042690;28;20194;-79
2022/10/19 10:57:33;;;;;;;10.80;4.30;;;;;;;25.62;25.55;94970.56;5043443;28;20217;-79
2022/10/19 11:00:06;;;;;;;7.55;4.32;;;;;;;25.46;26.10;94958.69;5039920;28;20195;-79
2022/10/19 11:02:41;;;;;;;9.73;4.53;;;;;;;25.42;26.07;94961.19;5041639;28;20273;-79
2022/10/19 11:05:14;;;;;;;13.00;4.60;;;;;;;25.21;25.66;94960.09;5040173;28;20197;-77
2022/10/19 11:07:44;;;;;;;9.80;4.15;;;;;;;25.18;25.72;94956.16;5039201;28;20190;-78
2022/10/19 11:10:30;;;;;;;9.55;4.20;;;;;;;25.15;25.50;94958.63;5040214;28;20214;-78
2022/10/19 11:13:05;;;;;;;4.28;3.40;;;;;;;24.95;24.51;94948.44;5042427;28;20596;-78
2022/10/19 11:15:37;;;;;;;5.85;3.65;;;;;;;25.23;24.25;94952.56;5041344;28;20190;-79
2022/10/19 11:18:16;;;;;;;5.85;3.95;;;;;;;24.90;24.25;94945.91;5039705;28;20662;-79
2022/10/19 11:20:51;;;;;;;13.10;3.80;;;;;;;24.93;25.04;94942.66;5042734;28;20190;-78
2022/10/19 11:23:26;;;;;;;9.80;3.97;;;;;;;25.50;24.76;94943.72;5049564;28;20186;-78
2022/10/19 11:26:09;;;;;;;10.35;4.00;;;;;;;26.16;24.44;94942.81;5045903;28;20197;-79
2022/10/19 11:28:55;;;;;;;9.65;3.85;;;;;;;26.35;23.21;94938.00;5045992;28;20236;-79
2022/10/19 11:31:33;;;;;;;7.43;4.13;;;;;;;26.15;23.10;94933.22;5045859;28;20210;-79
2022/10/19 11:34:06;;;;;;;16.33;4.00;;;;;;;25.99;23.46;94942.72;5046356;28;20243;-78
2022/10/19 11:36:46;;;;;;;9.88;4.20;;;;;;;25.83;24.07;94935.13;5044672;28;20218;-79
2022/10/19 11:39:27;;;;;;;15.15;4.55;;;;;;;26.48;23.50;94929.09;5046296;28;20209;-78